This is the latest recevied weather packets stored in our database for station/object VK4SSH. If no packets are shown the sender has not sent any weather packets the latest 10 day(s).
| Time | Temp. | Humidity | Pressure | Rain* | Wind** | Luminosity | Snow |
|---|---|---|---|---|---|---|---|
| 1777087523 | 18.89° C | 93% | - | 0.76 mm | - | - | - |
| 1777086923 | 18.89° C | 93% | - | 0.51 mm | - | - | - |
| 1777086323 | 18.89° C | 93% | - | 0.76 mm | - | - | - |
| 1777085723 | 18.33° C | 94% | - | 1.27 mm | - | - | - |
| 1777085123 | 18.33° C | 94% | - | 1.27 mm | - | - | - |
| 1777084523 | 18.33° C | 94% | - | 0.76 mm | - | - | - |
| 1777083923 | 18.33° C | 94% | - | 0.76 mm | - | - | - |
| 1777083323 | 18.33° C | 94% | - | 0.76 mm | - | - | - |
| 1777082723 | 18.89° C | 93% | - | 0.51 mm | - | - | - |
| 1777082122 | 19.44° C | 91% | - | 0.51 mm | - | - | - |
| 1777081522 | 19.44° C | 90% | - | 0.76 mm | - | - | - |
| 1777080923 | 18.89° C | 92% | - | 0.76 mm | - | - | - |
| 1777080323 | 18.33° C | 93% | - | 0.76 mm | - | - | - |
| 1777079723 | 18.33° C | 93% | - | 0.76 mm | - | - | - |
| 1777079122 | 18.33° C | 93% | - | 0.76 mm | - | - | - |
| 1777078523 | 18.33° C | 93% | - | 0.51 mm | - | - | - |
| 1777077923 | 18.33° C | 91% | - | 0 mm | - | - | - |
| 1777077323 | 18.33° C | 90% | - | 0.51 mm | - | - | - |
| 1777076723 | 17.78° C | 91% | - | 0.51 mm | - | - | - |
| 1777076123 | 17.78° C | 92% | - | 0.51 mm | - | - | - |
| 1777075522 | 17.78° C | 91% | - | 0.51 mm | - | - | - |
| 1777074922 | 18.33° C | 90% | - | 0.51 mm | - | - | - |
| 1777074322 | 19.44° C | 89% | - | 0.51 mm | - | - | - |
| 1777073722 | 19.44° C | 86% | - | 0 mm | - | - | - |
| 1777073123 | 19.44° C | 86% | - | 0 mm | - | - | - |
* Rain latest hour (hover to see other rain measurements)
** Current wind speed in m/s (hover to see current wind gust speed)